Time;durP1;ratioP1;P1;durP2;ratioP2;P2;SDS_P1;SDS_P2;PMS_P1;PMS_P2;Temp;Humidity;BMP_temperature;BMP_pressure;BME280_temperature;BME280_humidity;BME280_pressure;Samples;Min_cycle;Max_cycle;Signal;HPM_P1;HPM_P2
2022/07/31 00:03:54;;;;;;;4.85;3.28;;;;;;;21.25;53.51;100218.47;31396061;28;20049;-69
2022/07/31 00:18:56;;;;;;;6.45;2.75;;;;;;;21.11;53.30;100200.75;31390009;28;20099;-70
2022/07/31 00:33:59;;;;;;;11.07;3.35;;;;;;;20.98;53.83;100194.13;31414222;28;20049;-70
2022/07/31 00:49:01;;;;;;;3.95;3.20;;;;;;;20.80;54.57;100197.19;31392721;28;20067;-71
2022/07/31 01:04:03;;;;;;;6.60;3.25;;;;;;;20.70;54.93;100183.56;31386081;28;20102;-69
2022/07/31 01:19:30;;;;;;;8.87;3.03;;;;;;;20.54;56.13;100173.13;31375320;28;20084;-70
2022/07/31 01:34:54;;;;;;;6.22;3.60;;;;;;;20.40;56.87;100160.91;31370232;28;20102;-70
2022/07/31 01:49:57;;;;;;;4.45;3.05;;;;;;;20.29;57.08;100144.25;31345595;28;20053;-71
2022/07/31 02:05:01;;;;;;;3.93;2.67;;;;;;;20.28;57.45;100147.47;31356255;28;20041;-70
2022/07/31 02:20:06;;;;;;;4.78;3.10;;;;;;;20.23;57.54;100134.38;31354789;28;20426;-69
2022/07/31 02:35:10;;;;;;;5.50;3.15;;;;;;;20.23;57.59;100134.38;31350148;28;20055;-69
2022/07/31 02:50:12;;;;;;;9.30;3.30;;;;;;;20.29;57.74;100137.97;31381505;28;20052;-71
2022/07/31 03:05:21;;;;;;;8.95;4.05;;;;;;;20.43;58.29;100139.91;31365871;28;20135;-70
2022/07/31 03:20:24;;;;;;;8.57;4.20;;;;;;;20.53;57.92;100135.75;31378073;28;20525;-71
2022/07/31 03:35:26;;;;;;;7.67;3.70;;;;;;;20.72;57.84;100128.66;31373505;28;20079;-69
2022/07/31 03:50:28;;;;;;;5.25;3.10;;;;;;;21.16;57.38;100135.81;31368277;28;20052;-70
2022/07/31 04:05:30;;;;;;;8.43;3.15;;;;;;;21.54;56.13;100136.59;31343805;28;20049;-71
2022/07/31 04:20:32;;;;;;;5.05;3.72;;;;;;;21.95;55.31;100115.72;31379580;28;20044;-68
2022/07/31 04:35:34;;;;;;;5.40;3.30;;;;;;;22.48;53.85;100099.53;31379515;28;20502;-70
2022/07/31 04:50:36;;;;;;;7.85;3.80;;;;;;;23.07;52.85;100110.44;31366875;28;20044;-70
2022/07/31 05:05:41;;;;;;;6.33;3.57;;;;;;;23.80;51.08;100097.22;31332400;28;20053;-70
2022/07/31 05:20:43;;;;;;;6.20;3.15;;;;;;;24.65;48.92;100096.25;31358491;28;20056;-71
2022/07/31 05:35:45;;;;;;;3.55;2.35;;;;;;;25.05;47.71;100093.94;31372715;28;20056;-70
2022/07/31 05:50:48;;;;;;;4.17;2.70;;;;;;;25.82;46.17;100088.84;31415973;28;20490;-70
2022/07/31 06:05:50;;;;;;;5.53;3.00;;;;;;;26.45;44.67;100084.75;31363030;28;20082;-73
2022/07/31 06:20:52;;;;;;;10.75;4.30;;;;;;;27.22;42.86;100070.81;31402281;28;20056;-77
2022/07/31 06:35:55;;;;;;;6.00;2.40;;;;;;;27.73;41.10;100059.47;31409448;28;20497;-78
2022/07/31 06:50:57;;;;;;;4.53;2.33;;;;;;;28.18;39.68;100045.28;31372795;28;20049;-79
2022/07/31 07:06:18;;;;;;;5.82;2.38;;;;;;;29.00;36.37;100020.75;31364077;28;20099;-77
2022/07/31 07:21:20;;;;;;;2.88;1.80;;;;;;;28.96;35.84;100025.94;31378125;28;20049;-75
2022/07/31 07:36:24;;;;;;;6.35;2.05;;;;;;;29.51;32.54;100013.25;31412873;28;20395;-74
2022/07/31 07:51:27;;;;;;;6.97;2.55;;;;;;;29.96;32.52;100000.72;31391527;28;20460;-76
2022/07/31 08:06:29;;;;;;;3.55;2.70;;;;;;;30.26;32.20;99993.69;31368058;28;20494;-75
2022/07/31 08:21:31;;;;;;;4.60;1.75;;;;;;;30.49;30.73;99983.25;31411222;28;20059;-74
2022/07/31 08:36:33;;;;;;;3.40;1.63;;;;;;;31.08;30.76;99975.38;31331824;28;20052;-74
2022/07/31 08:51:38;;;;;;;4.40;1.80;;;;;;;31.63;31.05;99959.84;31339108;28;20090;-74
2022/07/31 09:06:55;;;;;;;2.65;1.70;;;;;;;31.81;29.53;99936.19;31317528;28;20475;-73
2022/07/31 09:21:57;;;;;;;3.88;1.95;;;;;;;32.57;28.89;99941.25;31353704;28;20501;-75
2022/07/31 09:37:11;;;;;;;7.35;3.53;;;;;;;33.00;27.80;99914.59;31357153;28;20056;-74
2022/07/31 09:52:19;;;;;;;3.38;1.83;;;;;;;33.88;27.16;99908.22;31389941;28;20534;-75
2022/07/31 10:07:26;;;;;;;7.22;1.83;;;;;;;34.16;27.38;99904.75;31404631;28;20486;-76
2022/07/31 10:22:39;;;;;;;7.22;2.00;;;;;;;34.46;27.04;99883.78;31367105;28;20056;-75
2022/07/31 10:38:15;;;;;;;3.27;1.93;;;;;;;34.80;25.88;99868.69;31437062;28;20053;-77
2022/07/31 10:53:18;;;;;;;6.35;2.00;;;;;;;34.38;26.21;99862.72;31398935;28;20297;-74
2022/07/31 11:08:20;;;;;;;4.88;2.58;;;;;;;34.93;25.81;99847.03;31395261;28;20053;-75
2022/07/31 11:23:28;;;;;;;4.10;2.10;;;;;;;34.18;27.14;99834.50;31415295;28;20056;-75
2022/07/31 11:38:31;;;;;;;7.93;4.90;;;;;;;33.11;27.59;99834.59;31380069;28;20068;-76
2022/07/31 11:53:40;;;;;;;9.27;2.55;;;;;;;32.21;29.69;99821.00;31388164;28;20048;-75
2022/07/31 12:08:42;;;;;;;4.83;2.30;;;;;;;31.53;29.94;99806.16;31388951;28;20490;-74
2022/07/31 12:23:50;;;;;;;8.73;2.40;;;;;;;31.09;30.79;99788.28;31391746;28;20040;-74
2022/07/31 12:39:00;;;;;;;3.60;2.38;;;;;;;30.96;31.36;99785.72;31374386;28;20056;-74
2022/07/31 12:54:03;;;;;;;7.73;2.03;;;;;;;30.81;31.34;99756.50;31372453;28;20132;-80
2022/07/31 13:09:05;;;;;;;5.75;2.30;;;;;;;30.83;31.42;99745.47;31341992;28;20056;-78
2022/07/31 13:24:08;;;;;;;5.88;3.20;;;;;;;30.71;31.75;99730.38;31396898;28;20413;-77
2022/07/31 13:39:10;;;;;;;6.82;2.35;;;;;;;30.70;31.88;99716.97;31450729;28;20079;-76
2022/07/31 13:54:12;;;;;;;4.32;2.20;;;;;;;30.66;32.21;99708.94;31428269;28;20520;-77
2022/07/31 14:09:15;;;;;;;4.32;1.80;;;;;;;30.56;31.88;99679.31;31379578;28;20057;-77
2022/07/31 14:24:17;;;;;;;2.90;2.25;;;;;;;30.46;32.22;99673.53;31381626;28;20048;-77
2022/07/31 14:39:19;;;;;;;4.00;3.00;;;;;;;30.46;32.17;99667.94;31405382;28;20425;-77
2022/07/31 14:54:21;;;;;;;5.32;2.85;;;;;;;30.38;32.58;99653.22;31403023;28;20041;-78
2022/07/31 15:09:23;;;;;;;3.42;2.95;;;;;;;30.28;32.79;99644.69;31406243;28;20053;-75
2022/07/31 15:24:25;;;;;;;5.60;3.47;;;;;;;30.17;33.31;99645.84;31376166;28;20053;-75
2022/07/31 15:39:27;;;;;;;3.78;2.60;;;;;;;29.95;33.84;99641.06;31382582;28;20418;-76
2022/07/31 15:54:29;;;;;;;11.95;3.15;;;;;;;29.70;34.92;99648.56;31372807;28;20049;-75
2022/07/31 16:09:31;;;;;;;5.88;3.80;;;;;;;29.50;35.53;99642.66;31361974;28;20060;-75
2022/07/31 16:24:33;;;;;;;11.98;5.90;;;;;;;29.41;35.64;99640.41;31336805;28;20053;-75
2022/07/31 16:39:36;;;;;;;4.85;3.80;;;;;;;29.25;36.50;99640.97;31341845;28;20060;-78
2022/07/31 16:54:39;;;;;;;6.13;3.45;;;;;;;29.02;36.73;99638.16;31361876;28;20052;-78
2022/07/31 17:09:41;;;;;;;6.38;3.22;;;;;;;28.80;37.98;99667.53;31353144;28;20052;-76
2022/07/31 17:24:43;;;;;;;3.55;2.78;;;;;;;28.52;38.89;99676.75;31367778;28;20045;-76
2022/07/31 17:39:45;;;;;;;8.65;3.13;;;;;;;28.29;40.12;99687.09;31377800;28;20111;-77
2022/07/31 17:54:50;;;;;;;5.75;3.05;;;;;;;28.11;40.79;99692.34;31414131;28;20068;-77
2022/07/31 18:09:52;;;;;;;4.85;2.83;;;;;;;27.93;40.84;99698.19;31375733;28;20049;-78
2022/07/31 18:24:53;;;;;;;12.77;6.85;;;;;;;27.84;41.04;99705.03;31375547;28;20045;-76
2022/07/31 18:39:57;;;;;;;4.75;3.30;;;;;;;27.81;40.43;99706.13;31374032;28;20061;-77
2022/07/31 18:54:59;;;;;;;6.55;4.13;;;;;;;27.76;39.36;99720.97;31369730;28;20051;-76
2022/07/31 19:10:03;;;;;;;8.30;3.88;;;;;;;27.70;39.36;99706.41;31378860;28;20067;-74
2022/07/31 19:25:07;;;;;;;9.25;4.78;;;;;;;27.59;39.23;99701.13;31372097;28;20045;-76
2022/07/31 19:40:09;;;;;;;11.80;5.93;;;;;;;27.52;38.84;99702.53;31365508;28;20068;-76
2022/07/31 19:55:13;;;;;;;8.00;4.30;;;;;;;27.44;39.14;99713.63;31403602;28;20054;-74
2022/07/31 20:10:15;;;;;;;8.02;4.07;;;;;;;27.30;39.42;99703.84;31366491;28;20395;-77
2022/07/31 20:25:17;;;;;;;10.00;5.32;;;;;;;26.15;56.20;99717.72;31362124;28;20570;-75
2022/07/31 20:40:26;;;;;;;10.23;5.50;;;;;;;23.64;77.61;99699.75;31328743;28;20052;-77
2022/07/31 20:55:27;;;;;;;9.80;4.53;;;;;;;23.34;85.17;99699.78;31344987;28;20075;-75
2022/07/31 21:10:30;;;;;;;8.00;4.50;;;;;;;23.65;83.58;99681.13;31342748;28;20148;-77
2022/07/31 21:25:32;;;;;;;12.70;5.10;;;;;;;23.91;81.14;99664.72;31331760;28;20048;-77
2022/07/31 21:40:38;;;;;;;19.48;10.05;;;;;;;24.17;84.68;99660.66;31313683;28;20136;-77
2022/07/31 21:55:40;;;;;;;23.92;14.23;;;;;;;24.23;83.31;99658.56;31320259;28;20045;-77
2022/07/31 22:10:42;;;;;;;6.87;4.03;;;;;;;24.35;83.13;99652.38;31318140;28;20084;-76
2022/07/31 22:25:45;;;;;;;8.47;4.27;;;;;;;24.51;81.18;99641.59;31354052;28;20053;-76
2022/07/31 22:40:47;;;;;;;6.80;4.30;;;;;;;24.56;81.25;99638.75;31391745;28;20056;-75
2022/07/31 22:55:52;;;;;;;7.20;3.53;;;;;;;24.50;68.90;99629.75;31366707;28;20048;-77
2022/07/31 23:10:54;;;;;;;5.53;4.00;;;;;;;24.41;79.42;99630.13;31345541;28;20049;-77
2022/07/31 23:25:56;;;;;;;5.47;3.47;;;;;;;24.26;75.89;99650.00;31370003;28;20496;-75
2022/07/31 23:40:58;;;;;;;9.20;4.80;;;;;;;24.21;74.87;99642.44;31403099;28;20425;-75
2022/07/31 23:56:00;;;;;;;7.47;4.07;;;;;;;24.08;67.98;99657.00;31372421;28;20048;-74
